Time;durP1;ratioP1;P1;durP2;ratioP2;P2;SDS_P1;SDS_P2;PMS_P1;PMS_P2;Temp;Humidity;BMP_temperature;BMP_pressure;BME280_temperature;BME280_humidity;BME280_pressure;Samples;Min_cycle;Max_cycle;Signal;HPM_P1;HPM_P2
2022/04/07 00:00:58;;;;;;;8.75;5.07;;;;;;;;;;5083290;28;20043;-83
2022/04/07 00:03:24;;;;;;;15.75;5.55;;;;;;;;;;5081688;28;20117;-82
2022/04/07 00:05:51;;;;;;;12.52;6.15;;;;;;;;;;5083156;28;20038;-84
2022/04/07 00:08:17;;;;;;;13.45;5.93;;;;;;;;;;5050783;28;21978;-84
2022/04/07 00:10:43;;;;;;;10.73;5.60;;;;;;;;;;5095309;27;20039;-84
2022/04/07 00:13:09;;;;;;;13.90;6.32;;;;;;;;;;5082885;28;20446;-83
2022/04/07 00:15:35;;;;;;;19.08;6.63;;;;;;;;;;5088550;28;20499;-83
2022/04/07 00:18:02;;;;;;;21.33;6.80;;;;;;;;;;5074733;28;20036;-84
2022/04/07 00:20:29;;;;;;;11.77;5.18;;;;;;;;;;5103663;27;20036;-85
2022/04/07 00:22:58;;;;;;;9.77;4.72;;;;;;;;;;5098858;28;20131;-84
2022/04/07 00:25:28;;;;;;;17.58;5.38;;;;;;;;;;5096979;28;20082;-84
2022/04/07 00:27:54;;;;;;;10.00;5.20;;;;;;;;;;5077349;28;20050;-84
2022/04/07 00:30:21;;;;;;;8.55;3.95;;;;;;;;;;5087079;28;20093;-84
2022/04/07 00:32:50;;;;;;;14.55;5.78;;;;;;;;;;5114404;27;20107;-83
2022/04/07 00:35:17;;;;;;;8.45;4.78;;;;;;;;;;5111072;28;20047;-84
2022/04/07 00:37:43;;;;;;;7.45;4.03;;;;;;;;;;5067002;28;20071;-84
2022/04/07 00:40:10;;;;;;;8.13;4.43;;;;;;;;;;5069765;28;20036;-85
2022/04/07 00:42:49;;;;;;;10.98;4.38;;;;;;;;;;5085859;28;20050;-84
2022/04/07 00:45:16;;;;;;;9.43;4.57;;;;;;;;;;5098203;28;20510;-83
2022/04/07 00:47:43;;;;;;;8.45;3.50;;;;;;;;;;5087388;28;20086;-83
2022/04/07 00:50:11;;;;;;;10.07;3.42;;;;;;;;;;5049169;28;20062;-83
2022/04/07 00:52:39;;;;;;;8.15;3.05;;;;;;;;;;5064828;28;20059;-84
2022/04/07 00:55:06;;;;;;;7.43;2.72;;;;;;;;;;5067488;28;20499;-84
2022/04/07 00:57:32;;;;;;;7.57;3.03;;;;;;;;;;5081713;28;20044;-84
2022/04/07 00:59:58;;;;;;;7.13;3.00;;;;;;;;;;5080183;28;20135;-83
2022/04/07 01:02:24;;;;;;;6.03;2.17;;;;;;;;;;5081248;28;20115;-84
2022/04/07 01:04:50;;;;;;;6.05;1.95;;;;;;;;;;5077432;28;20400;-83
2022/04/07 01:07:17;;;;;;;6.95;1.88;;;;;;;;;;5063937;28;20044;-84
2022/04/07 01:09:43;;;;;;;8.75;2.50;;;;;;;;;;5079557;28;20476;-83
2022/04/07 01:12:10;;;;;;;7.47;2.20;;;;;;;;;;5080280;28;20067;-83
2022/04/07 01:14:36;;;;;;;7.75;2.63;;;;;;;;;;5082798;28;20044;-83
2022/04/07 01:17:03;;;;;;;11.07;2.78;;;;;;;;;;5047614;28;20071;-84
2022/04/07 01:19:29;;;;;;;11.52;2.90;;;;;;;;;;5062591;28;20040;-82
2022/04/07 01:21:56;;;;;;;10.88;2.60;;;;;;;;;;5062056;28;20051;-83
2022/04/07 01:24:40;;;;;;;11.35;2.60;;;;;;;;;;5067302;28;20055;-83
2022/04/07 01:27:06;;;;;;;10.45;2.58;;;;;;;;;;5053915;28;20055;-83
2022/04/07 01:29:32;;;;;;;13.82;2.97;;;;;;;;;;5059994;28;20040;-83
2022/04/07 01:32:08;;;;;;;16.05;3.00;;;;;;;;;;5065349;28;20323;-84
2022/04/07 01:34:34;;;;;;;17.20;3.97;;;;;;;;;;5068663;28;20656;-84
2022/04/07 01:37:01;;;;;;;12.93;2.35;;;;;;;;;;5069839;28;20131;-84
2022/04/07 01:39:27;;;;;;;15.45;3.42;;;;;;;;;;5058503;28;20047;-83
2022/04/07 01:41:54;;;;;;;18.95;4.05;;;;;;;;;;5052050;28;20167;-84
2022/04/07 01:44:21;;;;;;;10.43;2.67;;;;;;;;;;5043520;28;20446;-83
2022/04/07 01:46:51;;;;;;;13.18;3.67;;;;;;;;;;5065266;28;20224;-84
2022/04/07 01:49:18;;;;;;;12.52;3.00;;;;;;;;;;5043561;28;20129;-84
2022/04/07 01:51:45;;;;;;;8.30;2.72;;;;;;;;;;5069388;28;20105;-85
2022/04/07 01:54:11;;;;;;;10.55;3.38;;;;;;;;;;5082605;28;20041;-84
2022/04/07 01:56:44;;;;;;;14.43;4.20;;;;;;;;;;5053201;28;20430;-84
2022/04/07 01:59:10;;;;;;;13.35;2.90;;;;;;;;;;5059604;28;20056;-84
2022/04/07 02:01:37;;;;;;;11.05;3.30;;;;;;;;;;5061051;28;20050;-84
2022/04/07 02:04:03;;;;;;;13.02;3.55;;;;;;;;;;5058545;28;20124;-85
2022/04/07 02:06:30;;;;;;;11.10;3.05;;;;;;;;;;5057017;28;20044;-84
2022/04/07 02:08:56;;;;;;;16.50;3.55;;;;;;;;;;5050015;28;20060;-83
2022/04/07 02:11:23;;;;;;;17.15;3.45;;;;;;;;;;5064006;28;20037;-84
2022/04/07 02:13:49;;;;;;;14.77;4.35;;;;;;;;;;5064244;28;20052;-84
2022/04/07 02:16:16;;;;;;;11.75;4.15;;;;;;;;;;5056568;28;20715;-84
2022/04/07 02:18:43;;;;;;;16.15;4.93;;;;;;;;;;5036770;28;20512;-83
2022/04/07 02:21:09;;;;;;;18.38;4.90;;;;;;;;;;5050969;28;20033;-83
2022/04/07 02:23:42;;;;;;;18.25;4.28;;;;;;;;;;5063070;28;20138;-83
2022/04/07 02:26:16;;;;;;;19.63;4.93;;;;;;;;;;5064570;28;20492;-83
2022/04/07 02:28:42;;;;;;;15.10;5.43;;;;;;;;;;5078705;28;20049;-83
2022/04/07 02:31:08;;;;;;;12.48;4.70;;;;;;;;;;5084572;28;20036;-84
2022/04/07 02:33:34;;;;;;;24.65;6.22;;;;;;;;;;5078828;28;20040;-83
2022/04/07 02:36:04;;;;;;;13.23;4.07;;;;;;;;;;5083157;28;20055;-83
2022/04/07 02:38:30;;;;;;;21.50;5.45;;;;;;;;;;5073645;28;20032;-82
2022/04/07 02:40:56;;;;;;;18.67;4.55;;;;;;;;;;5079002;28;20048;-82
2022/04/07 02:43:22;;;;;;;13.23;4.22;;;;;;;;;;5061113;28;20078;-83
2022/04/07 02:45:48;;;;;;;22.80;5.43;;;;;;;;;;5073912;28;20040;-83
2022/04/07 02:48:14;;;;;;;13.73;4.18;;;;;;;;;;5079288;28;20372;-83
2022/04/07 02:50:40;;;;;;;19.67;4.78;;;;;;;;;;5059939;28;20541;-83
2022/04/07 02:53:07;;;;;;;27.23;4.93;;;;;;;;;;5078358;28;20081;-83
2022/04/07 02:55:33;;;;;;;10.60;3.67;;;;;;;;;;5090847;28;20457;-83
2022/04/07 02:57:59;;;;;;;14.35;4.15;;;;;;;;;;5063120;28;20055;-83
2022/04/07 03:00:25;;;;;;;25.55;5.25;;;;;;;;;;5070124;28;20123;-83
2022/04/07 03:02:51;;;;;;;27.95;5.20;;;;;;;;;;5097601;28;20142;-83
2022/04/07 03:05:18;;;;;;;19.08;4.22;;;;;;;;;;5088879;28;20112;-83
2022/04/07 03:07:44;;;;;;;18.20;4.40;;;;;;;;;;5065407;28;20131;-83
2022/04/07 03:10:13;;;;;;;19.95;3.65;;;;;;;;;;5101588;27;20051;-83
2022/04/07 03:12:39;;;;;;;20.95;3.97;;;;;;;;;;5066238;28;20409;-83
2022/04/07 03:15:06;;;;;;;19.38;4.72;;;;;;;;;;5097669;28;20411;-82
2022/04/07 03:17:33;;;;;;;19.35;4.60;;;;;;;;;;5091955;28;20476;-83
2022/04/07 03:20:00;;;;;;;21.88;5.05;;;;;;;;;;5072025;28;20166;-82
2022/04/07 03:22:26;;;;;;;22.38;5.55;;;;;;;;;;5087822;28;20598;-83
2022/04/07 03:24:52;;;;;;;20.23;6.25;;;;;;;;;;5091371;28;20499;-83
2022/04/07 03:27:18;;;;;;;19.02;5.63;;;;;;;;;;5048911;28;20393;-83
2022/04/07 03:29:44;;;;;;;15.55;5.63;;;;;;;;;;5062417;28;20059;-84
2022/04/07 03:32:11;;;;;;;14.77;5.45;;;;;;;;;;5084422;28;20518;-83
2022/04/07 03:34:37;;;;;;;20.65;6.32;;;;;;;;;;5086051;28;20480;-83
2022/04/07 03:37:06;;;;;;;19.98;5.78;;;;;;;;;;5085931;28;20048;-85
2022/04/07 03:39:33;;;;;;;24.40;5.93;;;;;;;;;;5089237;28;20055;-84
2022/04/07 03:41:59;;;;;;;11.95;5.07;;;;;;;;;;5091780;28;20292;-83
2022/04/07 03:44:26;;;;;;;18.15;5.57;;;;;;;;;;5080236;28;20079;-84
2022/04/07 03:46:52;;;;;;;22.45;5.95;;;;;;;;;;5096484;28;20047;-84
2022/04/07 03:49:18;;;;;;;13.60;5.75;;;;;;;;;;5087843;28;20117;-85
2022/04/07 03:51:44;;;;;;;14.40;4.18;;;;;;;;;;5089038;28;20074;-84
2022/04/07 03:54:10;;;;;;;15.00;4.45;;;;;;;;;;5085308;28;20142;-84
2022/04/07 03:56:37;;;;;;;16.38;5.30;;;;;;;;;;5090693;28;20486;-84
2022/04/07 03:59:03;;;;;;;16.58;4.38;;;;;;;;;;5070959;28;20048;-84
2022/04/07 04:01:29;;;;;;;10.80;3.45;;;;;;;;;;5097474;28;20056;-84
2022/04/07 04:03:56;;;;;;;20.35;5.25;;;;;;;;;;5098824;28;20150;-85
2022/04/07 04:06:22;;;;;;;11.90;3.42;;;;;;;;;;5056026;28;20492;-84
2022/04/07 04:08:48;;;;;;;15.88;3.92;;;;;;;;;;5090082;28;20032;-85
2022/04/07 04:11:14;;;;;;;8.35;3.33;;;;;;;;;;5089742;28;20085;-84
2022/04/07 04:13:41;;;;;;;18.95;4.28;;;;;;;;;;5093657;28;20143;-85
2022/04/07 04:16:08;;;;;;;13.68;4.07;;;;;;;;;;5101241;28;20039;-84
2022/04/07 04:18:35;;;;;;;12.95;4.25;;;;;;;;;;5084009;28;20032;-85
2022/04/07 04:21:01;;;;;;;19.05;4.50;;;;;;;;;;5093194;28;20101;-84
2022/04/07 04:23:27;;;;;;;16.10;4.15;;;;;;;;;;5084332;28;20118;-85
2022/04/07 04:25:54;;;;;;;20.33;4.43;;;;;;;;;;5083883;28;20079;-85
2022/04/07 04:28:20;;;;;;;13.77;3.72;;;;;;;;;;5095944;28;20751;-84
2022/04/07 04:30:46;;;;;;;16.95;3.88;;;;;;;;;;5066413;28;20118;-84
2022/04/07 04:33:12;;;;;;;14.25;3.72;;;;;;;;;;5095919;28;20043;-84
2022/04/07 04:35:38;;;;;;;18.48;4.05;;;;;;;;;;5087353;28;20619;-85
2022/04/07 04:38:04;;;;;;;22.55;4.13;;;;;;;;;;5078391;28;20032;-84
2022/04/07 04:40:31;;;;;;;24.10;5.20;;;;;;;;;;5098878;28;20083;-85
2022/04/07 04:42:57;;;;;;;12.93;3.63;;;;;;;;;;5068418;28;20058;-84
2022/04/07 04:45:23;;;;;;;24.17;4.72;;;;;;;;;;5098287;28;20044;-85
2022/04/07 04:47:52;;;;;;;27.75;5.43;;;;;;;;;;5099697;28;20050;-85
2022/04/07 04:50:19;;;;;;;19.30;4.03;;;;;;;;;;5083630;28;20060;-84
2022/04/07 04:52:45;;;;;;;17.58;3.58;;;;;;;;;;5067258;28;20043;-85
2022/04/07 04:55:39;;;;;;;17.13;4.30;;;;;;;;;;5086646;28;20139;-85
2022/04/07 04:58:05;;;;;;;15.45;3.92;;;;;;;;;;5078162;28;20040;-86
2022/04/07 05:00:31;;;;;;;22.13;3.95;;;;;;;;;;5068874;28;20040;-85
2022/04/07 05:02:58;;;;;;;20.52;4.13;;;;;;;;;;5067047;28;20044;-85
2022/04/07 05:05:24;;;;;;;24.45;4.45;;;;;;;;;;5086273;28;20105;-85
2022/04/07 05:07:50;;;;;;;14.52;3.80;;;;;;;;;;5069651;28;20036;-85
2022/04/07 05:10:16;;;;;;;14.25;4.15;;;;;;;;;;5099927;28;20083;-86
2022/04/07 05:12:42;;;;;;;14.82;3.13;;;;;;;;;;5072313;28;20051;-85
2022/04/07 05:15:08;;;;;;;22.63;3.65;;;;;;;;;;5098331;28;20129;-86
2022/04/07 05:17:34;;;;;;;20.02;3.25;;;;;;;;;;5099717;28;20114;-84
2022/04/07 05:20:00;;;;;;;21.98;5.13;;;;;;;;;;5066159;28;20068;-84
2022/04/07 05:22:26;;;;;;;19.05;3.38;;;;;;;;;;5076328;28;20051;-84
2022/04/07 05:24:52;;;;;;;16.27;3.20;;;;;;;;;;5103359;28;20063;-84
2022/04/07 05:27:18;;;;;;;20.42;4.75;;;;;;;;;;5087114;28;20128;-86
2022/04/07 05:29:44;;;;;;;23.08;4.60;;;;;;;;;;5088619;28;20877;-86
2022/04/07 05:32:10;;;;;;;23.20;4.78;;;;;;;;;;5086214;28;20051;-84
2022/04/07 05:34:37;;;;;;;26.10;4.30;;;;;;;;;;5065222;28;20036;-85
2022/04/07 05:37:03;;;;;;;20.98;4.75;;;;;;;;;;5085804;28;20120;-85
2022/04/07 05:39:29;;;;;;;21.85;5.47;;;;;;;;;;5084206;28;20044;-85
2022/04/07 05:41:56;;;;;;;14.02;3.85;;;;;;;;;;5088090;28;20068;-84
2022/04/07 05:44:22;;;;;;;7.90;2.28;;;;;;;;;;5085626;28;20054;-84
2022/04/07 05:46:51;;;;;;;11.70;2.53;;;;;;;;;;5102811;28;20831;-88
2022/04/07 05:49:17;;;;;;;8.32;2.28;;;;;;;;;;5067351;28;20052;-88
2022/04/07 05:51:44;;;;;;;8.93;1.60;;;;;;;;;;5031398;28;20122;-88
2022/04/07 05:54:10;;;;;;;11.38;1.60;;;;;;;;;;5066086;28;20076;-87
2022/04/07 05:56:36;;;;;;;9.85;1.30;;;;;;;;;;5064959;28;20041;-87
2022/04/07 05:59:08;;;;;;;8.75;2.03;;;;;;;;;;5067893;28;20467;-86
2022/04/07 06:05:22;;;;;;;10.45;2.67;;;;;;;;;;5043589;28;20508;-85
2022/04/07 06:08:04;;;;;;;7.13;1.83;;;;;;;;;;5045545;28;20075;-88
2022/04/07 06:10:53;;;;;;;5.13;1.83;;;;;;;;;;5020063;28;20079;-86
2022/04/07 06:13:28;;;;;;;13.13;2.50;;;;;;;;;;5023538;28;20068;-88
2022/04/07 06:15:54;;;;;;;20.67;2.78;;;;;;;;;;5025297;28;20068;-84
2022/04/07 06:21:43;;;;;;;16.00;2.70;;;;;;;;;;5012068;28;20052;-88
2022/04/07 06:31:36;;;;;;;12.63;1.60;;;;;;;;;;5042016;28;20051;-87
2022/04/07 06:34:02;;;;;;;13.52;1.58;;;;;;;;;;5066256;28;20403;-86
2022/04/07 06:36:28;;;;;;;8.75;1.17;;;;;;;;;;5086145;28;20036;-87
2022/04/07 06:38:57;;;;;;;9.90;1.83;;;;;;;;;;5071531;28;20132;-86
2022/04/07 06:41:39;;;;;;;8.70;1.42;;;;;;;;;;5077655;28;20101;-86
2022/04/07 06:44:05;;;;;;;6.22;1.77;;;;;;;;;;5085822;28;20094;-85
2022/04/07 06:46:43;;;;;;;5.80;1.25;;;;;;;;;;5101798;28;20043;-86
2022/04/07 06:49:09;;;;;;;6.20;1.40;;;;;;;;;;5053344;28;20047;-85
2022/04/07 06:51:39;;;;;;;7.38;2.10;;;;;;;;;;5064998;28;20082;-86
2022/04/07 06:54:24;;;;;;;4.72;1.45;;;;;;;;;;5090992;28;20055;-86
2022/04/07 06:57:00;;;;;;;4.40;1.30;;;;;;;;;;5051444;28;20116;-86
2022/04/07 06:59:26;;;;;;;5.30;1.02;;;;;;;;;;5069967;28;20072;-85
2022/04/07 07:01:52;;;;;;;3.83;0.90;;;;;;;;;;5085523;28;20549;-84
2022/04/07 07:04:18;;;;;;;5.07;1.00;;;;;;;;;;5058366;28;20036;-85
2022/04/07 07:06:44;;;;;;;2.90;0.80;;;;;;;;;;5089993;28;20042;-85
2022/04/07 07:09:11;;;;;;;2.72;0.60;;;;;;;;;;5078775;28;20044;-85
2022/04/07 07:11:54;;;;;;;2.38;0.88;;;;;;;;;;5071529;28;20046;-85
2022/04/07 07:14:21;;;;;;;3.67;0.83;;;;;;;;;;5114163;28;20051;-87
2022/04/07 07:16:57;;;;;;;11.45;1.15;;;;;;;;;;5087825;28;20350;-86
2022/04/07 07:19:29;;;;;;;2.17;0.82;;;;;;;;;;5110157;28;20050;-85
2022/04/07 07:25:17;;;;;;;6.28;0.90;;;;;;;;;;5104509;28;20120;-85
2022/04/07 07:28:15;;;;;;;8.07;1.40;;;;;;;;;;5081236;28;20101;-85
2022/04/07 07:30:51;;;;;;;2.90;1.15;;;;;;;;;;5068702;28;20040;-87
2022/04/07 07:33:17;;;;;;;4.63;1.10;;;;;;;;;;5053584;28;20050;-86
2022/04/07 07:35:45;;;;;;;5.78;1.02;;;;;;;;;;5068323;28;20056;-85
2022/04/07 07:38:22;;;;;;;4.10;1.25;;;;;;;;;;5088367;28;20124;-86
2022/04/07 07:40:49;;;;;;;4.38;1.48;;;;;;;;;;5091890;28;20118;-85
2022/04/07 07:43:15;;;;;;;2.45;1.35;;;;;;;;;;5088537;28;20056;-85
2022/04/07 07:45:41;;;;;;;5.15;1.20;;;;;;;;;;5068126;28;20530;-86
2022/04/07 07:48:07;;;;;;;5.18;1.02;;;;;;;;;;5085154;28;20055;-84
2022/04/07 07:50:34;;;;;;;1.48;1.02;;;;;;;;;;5069873;28;20384;-86
2022/04/07 07:53:21;;;;;;;4.05;1.10;;;;;;;;;;5066457;28;20044;-85
2022/04/07 07:56:05;;;;;;;2.25;0.80;;;;;;;;;;5066290;28;20057;-85
2022/04/07 07:58:31;;;;;;;;;;;;;;;;;;5064661;28;20049;-85
2022/04/07 08:01:04;;;;;;;3.70;1.00;;;;;;;;;;5059445;28;19996;-85
2022/04/07 08:03:30;;;;;;;2.50;0.85;;;;;;;;;;5049769;28;20044;-85
2022/04/07 08:06:18;;;;;;;9.25;1.17;;;;;;;;;;5102090;28;20024;-84
2022/04/07 08:08:55;;;;;;;5.38;1.23;;;;;;;;;;5084278;28;20040;-85
2022/04/07 08:15:03;;;;;;;4.70;1.10;;;;;;;;;;5067303;28;20055;-86
2022/04/07 08:17:42;;;;;;;5.13;1.52;;;;;;;;;;5081429;28;20060;-86
2022/04/07 08:20:08;;;;;;;6.28;1.25;;;;;;;;;;5072254;28;20960;-85
2022/04/07 08:22:34;;;;;;;4.18;1.10;;;;;;;;;;5069226;28;20040;-86
2022/04/07 08:25:26;;;;;;;4.78;1.73;;;;;;;;;;5099518;28;20056;-86
2022/04/07 08:27:52;;;;;;;3.97;1.20;;;;;;;;;;5069310;28;20606;-86
2022/04/07 08:30:18;;;;;;;5.80;1.63;;;;;;;;;;5065141;28;20496;-86
2022/04/07 08:32:48;;;;;;;6.57;1.30;;;;;;;;;;5114005;27;20040;-86
2022/04/07 08:35:14;;;;;;;7.35;1.13;;;;;;;;;;5105129;28;20119;-87
2022/04/07 08:37:57;;;;;;;6.85;1.27;;;;;;;;;;5073058;28;20090;-86
2022/04/07 08:40:36;;;;;;;5.83;1.10;;;;;;;;;;5087535;28;20082;-86
2022/04/07 08:50:00;;;;;;;4.07;1.17;;;;;;;;;;5045001;28;20099;-87
2022/04/07 08:52:36;;;;;;;7.28;1.50;;;;;;;;;;5049301;28;20045;-86
2022/04/07 08:55:06;;;;;;;6.25;1.02;;;;;;;;;;5044326;28;20124;-88
2022/04/07 08:57:33;;;;;;;4.60;1.67;;;;;;;;;;5047056;28;20062;-83
2022/04/07 09:00:00;;;;;;;3.03;1.33;;;;;;;;;;5053545;28;20036;-83
2022/04/07 09:02:26;;;;;;;9.10;1.33;;;;;;;;;;5064323;28;20055;-83
2022/04/07 09:04:58;;;;;;;6.80;1.55;;;;;;;;;;5070067;28;20056;-81
2022/04/07 09:07:30;;;;;;;9.85;1.20;;;;;;;;;;5065145;28;20112;-83
2022/04/07 09:10:08;;;;;;;11.18;1.73;;;;;;;;;;5066484;28;20469;-83
2022/04/07 09:12:38;;;;;;;9.27;1.65;;;;;;;;;;5046564;28;20480;-82
2022/04/07 09:15:04;;;;;;;8.20;1.35;;;;;;;;;;5065141;28;20048;-83
2022/04/07 09:17:32;;;;;;;7.55;1.38;;;;;;;;;;5064203;28;20044;-83
2022/04/07 09:19:58;;;;;;;7.40;1.13;;;;;;;;;;5047782;28;20044;-83
2022/04/07 09:22:31;;;;;;;8.00;1.67;;;;;;;;;;5068987;28;20090;-83
2022/04/07 09:24:59;;;;;;;4.50;1.23;;;;;;;;;;5065229;28;20040;-82
2022/04/07 09:27:25;;;;;;;9.68;2.08;;;;;;;;;;5074987;28;20079;-84
2022/04/07 09:29:55;;;;;;;12.48;1.90;;;;;;;;;;5073231;28;20033;-84
2022/04/07 09:32:23;;;;;;;8.95;1.50;;;;;;;;;;5060290;28;20049;-84
2022/04/07 09:34:57;;;;;;;9.38;1.70;;;;;;;;;;5050142;28;20289;-83
2022/04/07 09:37:24;;;;;;;5.85;1.50;;;;;;;;;;5048658;28;20500;-83
2022/04/07 09:40:02;;;;;;;7.18;2.03;;;;;;;;;;5051573;28;20075;-83
2022/04/07 09:42:29;;;;;;;7.00;1.70;;;;;;;;;;5058277;28;20060;-83
2022/04/07 09:45:03;;;;;;;11.13;1.70;;;;;;;;;;5065412;28;20608;-84
2022/04/07 09:47:38;;;;;;;8.10;2.08;;;;;;;;;;5027597;28;20044;-82
2022/04/07 09:50:05;;;;;;;8.40;1.58;;;;;;;;;;5066469;28;20127;-84
2022/04/07 09:52:33;;;;;;;6.68;1.33;;;;;;;;;;5067237;28;20493;-83
2022/04/07 09:55:17;;;;;;;8.68;1.85;;;;;;;;;;5066682;28;20040;-83
2022/04/07 09:57:43;;;;;;;;;;;10.20;99.90;;;;;;5066687;28;20095;-83
2022/04/07 10:00:09;;;;;;;11.77;1.67;;;;;;;;;;5054801;28;19967;-82
2022/04/07 10:02:35;;;;;;;10.15;1.80;;;;;;;;;;5072045;28;20041;-83
2022/04/07 10:05:02;;;;;;;5.03;1.50;;;;;;;;;;5067458;28;20036;-83
2022/04/07 10:07:29;;;;;;;8.70;2.20;;;;;;;;;;5064197;28;20044;-82
2022/04/07 10:09:55;;;;;;;12.63;2.53;;;;;;;;;;5062058;28;20503;-85
2022/04/07 10:12:22;;;;;;;11.65;2.20;;;;;;;;;;5076429;22;20161;-86
2022/04/07 10:14:48;;;;;;;7.68;1.50;;;;;;;;;;5067789;28;20048;-86
2022/04/07 10:17:14;;;;;;;12.57;2.40;;;;;;;;;;5080175;28;20044;-85
2022/04/07 10:23:16;;;;;;;5.18;1.45;;;;;;;;;;5082770;28;20597;-87
2022/04/07 10:25:43;;;;;;;6.07;1.33;;;;;;;;;;5069529;28;20625;-85
2022/04/07 10:28:16;;;;;;;9.15;1.70;;;;;;;;;;5082507;28;20044;-86
2022/04/07 10:30:55;;;;;;;13.25;2.25;;;;;;;;;;5058104;28;20044;-85
2022/04/07 10:33:34;;;;;;;10.45;1.90;;;;;;;;;;5094659;28;20044;-86
2022/04/07 10:36:00;;;;;;;11.70;2.45;;;;;;;;;;5077012;28;20055;-86
2022/04/07 10:38:39;;;;;;;8.43;1.70;;;;;;;;;;5066696;28;20056;-86
2022/04/07 10:41:06;;;;;;;11.82;2.20;;;;;;;;;;5071676;28;20047;-85
2022/04/07 10:43:38;;;;;;;10.00;3.17;;;;;;;;;;5057376;28;20496;-86
2022/04/07 10:46:18;;;;;;;14.05;3.53;;;;;;;;;;5024993;28;20053;-83
2022/04/07 10:48:45;;;;;;;9.10;1.92;;;;;;;;;;5060162;28;20124;-84
2022/04/07 10:51:12;;;;;;;8.90;2.28;;;;;;;;;;5051169;28;20051;-83
2022/04/07 10:53:42;;;;;;;9.45;1.10;;;;;;;;;;5048113;28;20071;-86
2022/04/07 10:56:13;;;;;;;12.43;2.70;;;;;;;;;;5024323;28;20053;-83
2022/04/07 10:58:44;;;;;;;8.90;1.80;;;;;;;;;;5027559;28;20053;-85
2022/04/07 11:01:14;;;;;;;12.38;2.63;;;;;;;;;;5040894;28;20052;-86
2022/04/07 11:03:42;;;;;;;17.42;2.15;;;;;;;;;;5047137;28;20049;-85
2022/04/07 11:06:10;;;;;;;14.60;2.33;;;;;;;;;;5048360;28;20341;-84
2022/04/07 11:08:36;;;;;;;13.18;2.70;;;;;;;;;;5065567;28;20630;-85
2022/04/07 11:11:02;;;;;;;11.50;1.92;;;;;;;;;;5061539;28;20049;-85
2022/04/07 11:13:45;;;;;;;14.38;3.70;;;;;;;;;;5048844;28;20055;-86
2022/04/07 11:16:40;;;;;;;16.58;2.47;;;;;;;;;;5051107;28;20648;-84
2022/04/07 11:19:07;;;;;;;10.27;2.20;;;;;;;;;;5067220;28;20538;-83
2022/04/07 11:21:45;;;;;;;7.32;2.45;;;;;;;;;;5054695;28;20071;-85
2022/04/07 11:24:15;;;;;;;20.17;3.78;;;;;;;;;;5087681;28;20040;-84
2022/04/07 11:26:41;;;;;;;12.27;2.50;;;;;;;;;;5071755;28;20087;-84
2022/04/07 11:29:11;;;;;;;14.77;2.38;;;;;;;;;;5070324;28;20044;-84
2022/04/07 11:31:51;;;;;;;12.20;2.33;;;;;;;;;;5090922;28;20051;-84
2022/04/07 11:34:36;;;;;;;17.67;2.72;;;;;;;;;;5071251;28;20087;-86
2022/04/07 11:37:21;;;;;;;17.85;2.45;;;;;;;;;;5094901;28;20067;-85
2022/04/07 11:39:49;;;;;;;15.15;3.28;;;;;;;;;;5066028;28;20135;-85
2022/04/07 11:42:18;;;;;;;17.73;3.72;;;;;;;;;;5111045;28;20054;-85
2022/04/07 11:44:46;;;;;;;12.73;2.05;;;;;;;;;;5085281;28;20048;-82
2022/04/07 11:47:22;;;;;;;12.98;2.30;;;;;;;;;;5093605;28;20067;-84
2022/04/07 11:49:52;;;;;;;11.75;2.75;;;;;;;;;;5086800;28;20109;-84
2022/04/07 11:52:25;;;;;;;11.45;2.35;;;;;;;;;;5097235;28;20047;-83
2022/04/07 11:54:53;;;;;;;9.35;2.15;;;;;;;;;;5057509;28;20043;-83
2022/04/07 11:57:20;;;;;;;11.50;2.67;;;;;;;;;;5092781;28;20538;-84
2022/04/07 11:59:46;;;;;;;15.07;2.10;;;;;;;;;;5089161;28;20032;-81
2022/04/07 12:02:19;;;;;;;11.45;2.63;;;;;;;;;;5057038;28;20078;-81
2022/04/07 12:04:45;;;;;;;15.98;2.78;;;;;;;;;;5100104;28;20050;-82
2022/04/07 12:07:11;;;;;;;5.82;1.83;;;;;;;;;;5075335;28;20044;-82
2022/04/07 12:09:37;;;;;;;10.77;2.38;;;;;;;;;;5047510;28;20056;-86
2022/04/07 12:12:03;;;;;;;14.38;2.33;;;;;;;;;;5072350;28;20029;-82
2022/04/07 12:14:29;;;;;;;13.85;2.78;;;;;;;;;;5079174;28;20062;-85
2022/04/07 12:16:56;;;;;;;14.93;2.40;;;;;;;;;;5093036;28;20109;-86
2022/04/07 12:19:23;;;;;;;13.02;2.38;;;;;;;;;;5090797;28;20032;-80
2022/04/07 12:21:56;;;;;;;11.23;2.80;;;;;;;;;;5049135;28;20036;-85
2022/04/07 12:24:23;;;;;;;9.52;2.15;;;;;;;;;;5087885;28;20037;-82
2022/04/07 12:26:50;;;;;;;14.00;3.00;;;;;;;;;;5091218;28;20135;-86
2022/04/07 12:29:19;;;;;;;10.07;2.33;;;;;;;;;;5071683;28;20036;-86
2022/04/07 12:31:46;;;;;;;12.60;2.40;;;;;;;;;;5086846;28;20105;-84
2022/04/07 12:34:13;;;;;;;6.18;1.88;;;;;;;;;;5082050;28;20037;-86
2022/04/07 12:36:40;;;;;;;3.80;1.23;;;;;;;;;;5087402;28;20040;-85
2022/04/07 12:39:13;;;;;;;11.57;1.40;;;;;;;;;;5085547;28;20099;-89
2022/04/07 12:41:39;;;;;;;8.52;2.22;;;;;;;;;;5092155;28;20039;-82
2022/04/07 12:44:06;;;;;;;11.23;2.10;;;;;;;;;;5082875;28;20548;-88
2022/04/07 12:46:52;;;;;;;5.97;1.73;;;;;;;;;;5088315;28;20056;-87
2022/04/07 12:49:24;;;;;;;10.05;2.10;;;;;;;;;;5081290;28;20025;-82
2022/04/07 12:52:00;;;;;;;9.02;2.03;;;;;;;;;;5083016;28;20513;-86
2022/04/07 12:54:26;;;;;;;11.70;2.30;;;;;;;;;;5069669;28;20084;-84
2022/04/07 12:57:06;;;;;;;7.93;2.10;;;;;;;;;;5080660;28;20117;-87
2022/04/07 12:59:32;;;;;;;7.47;1.55;;;;;;;;;;5085531;28;20042;-84
2022/04/07 13:01:58;;;;;;;6.65;1.70;;;;;;;;;;5078703;28;20067;-87
2022/04/07 13:04:43;;;;;;;11.13;1.77;;;;;;;;;;5071739;28;20047;-83
2022/04/07 13:07:10;;;;;;;10.45;1.90;;;;;;;;;;5065213;28;20065;-83
2022/04/07 13:09:39;;;;;;;7.95;1.80;;;;;;;;;;5084653;28;20039;-87
2022/04/07 13:12:05;;;;;;;11.00;2.72;;;;;;;;;;5077693;28;20047;-85
2022/04/07 13:14:32;;;;;;;14.70;2.28;;;;;;;;;;5069794;28;20621;-87
2022/04/07 13:16:58;;;;;;;13.02;2.50;;;;;;;;;;5071826;28;20487;-87
2022/04/07 13:19:24;;;;;;;10.00;2.15;;;;;;;;;;5034832;28;20055;-85
2022/04/07 13:21:50;;;;;;;7.03;1.73;;;;;;;;;;5057999;28;20119;-85
2022/04/07 13:24:21;;;;;;;6.55;1.90;;;;;;;;;;5063247;28;20074;-85
2022/04/07 13:26:49;;;;;;;4.15;1.13;;;;;;;;;;5048189;28;20045;-85
2022/04/07 13:29:27;;;;;;;3.65;0.70;;;;;;;;;;5061201;28;20076;-86
2022/04/07 13:31:54;;;;;;;4.82;2.13;;;;;;;;;;5070529;28;20047;-86
2022/04/07 13:34:20;;;;;;;2.05;0.50;;;;;;;;;;5045111;28;20127;-85
2022/04/07 13:36:46;;;;;;;5.20;1.13;;;;;;;;;;5065421;28;20504;-84
2022/04/07 13:39:13;;;;;;;4.05;0.90;;;;;;;;;;5060898;28;20029;-83
2022/04/07 13:41:39;;;;;;;4.20;1.38;;;;;;;;;;5073650;28;20048;-84
2022/04/07 13:44:08;;;;;;;3.50;0.95;;;;;;;;;;5069910;28;20068;-83
2022/04/07 13:46:35;;;;;;;4.60;1.00;;;;;;;;;;5067823;28;20046;-86
2022/04/07 13:49:01;;;;;;;4.45;1.48;;;;;;;;;;5063092;28;20052;-86
2022/04/07 13:51:27;;;;;;;7.68;1.92;;;;;;;;;;5034402;28;20068;-85
2022/04/07 13:53:59;;;;;;;5.68;1.63;;;;;;;;;;5081438;28;20040;-85
2022/04/07 13:56:25;;;;;;;5.40;1.95;;;;;;;;;;5079468;28;20028;-86
2022/04/07 13:58:51;;;;;;;6.57;2.72;;;;;;;;;;5077844;28;20044;-85
2022/04/07 14:01:21;;;;;;;6.15;1.65;;;;;;;;;;5033713;28;20456;-86
2022/04/07 14:03:47;;;;;;;8.85;1.90;;;;;;;;;;5047336;28;20040;-86
2022/04/07 14:06:14;;;;;;;9.40;1.85;;;;;;;;;;5032693;28;20082;-86
2022/04/07 14:08:44;;;;;;;9.82;2.03;;;;;;;;;;5051344;28;20064;-87
2022/04/07 14:11:10;;;;;;;8.95;1.48;;;;;;;;;;5067875;28;20036;-87
2022/04/07 14:13:36;;;;;;;7.95;2.08;;;;;;;;;;5079327;28;20139;-87
2022/04/07 14:16:04;;;;;;;10.65;2.30;;;;;;;;;;5086312;28;20102;-84
2022/04/07 14:18:34;;;;;;;10.05;2.15;;;;;;;;;;5058925;28;20123;-86
2022/04/07 14:21:00;;;;;;;10.32;1.83;;;;;;;;;;5068505;28;20032;-84
2022/04/07 14:23:26;;;;;;;10.23;2.38;;;;;;;;;;5058716;28;20491;-85
2022/04/07 14:25:53;;;;;;;9.70;1.75;;;;;;;;;;5074360;28;20154;-81
2022/04/07 14:28:19;;;;;;;9.10;2.13;;;;;;;;;;5079199;28;20042;-84
2022/04/07 14:30:49;;;;;;;11.65;2.20;;;;;;;;;;5078740;28;20058;-85
2022/04/07 14:33:16;;;;;;;13.15;2.75;;;;;;;;;;5083050;28;20041;-84
2022/04/07 14:35:42;;;;;;;8.57;1.85;;;;;;;;;;5079202;28;20032;-84
2022/04/07 14:38:09;;;;;;;8.18;1.98;;;;;;;;;;5070957;28;20074;-85
2022/04/07 14:40:37;;;;;;;12.10;1.90;;;;;;;;;;5074495;28;20089;-84
2022/04/07 14:43:03;;;;;;;10.13;1.90;;;;;;;;;;5074559;28;20047;-84
2022/04/07 14:45:29;;;;;;;9.75;2.20;;;;;;;;;;5079391;28;20086;-82
2022/04/07 14:47:55;;;;;;;14.07;2.50;;;;;;;;;;5069963;28;20044;-80
2022/04/07 14:50:23;;;;;;;9.07;2.00;;;;;;;;;;5053724;28;20040;-82
2022/04/07 14:52:49;;;;;;;10.95;1.88;;;;;;;;;;5042766;28;20587;-84
2022/04/07 14:55:15;;;;;;;10.07;2.00;;;;;;;;;;5061784;28;20484;-85
2022/04/07 14:57:42;;;;;;;7.60;1.95;;;;;;;;;;5085884;28;20040;-81
2022/04/07 15:00:08;;;;;;;9.80;1.63;;;;;;;;;;5046974;28;20036;-82
2022/04/07 15:02:34;;;;;;;15.23;2.45;;;;;;;;;;5081169;28;20044;-86
2022/04/07 15:05:04;;;;;;;9.32;2.08;;;;;;;;;;5075190;28;20085;-86
2022/04/07 15:07:30;;;;;;;13.25;1.88;;;;;;;;;;5080980;28;20127;-83
2022/04/07 15:09:56;;;;;;;11.45;2.10;;;;;;;;;;5080619;28;20115;-83
2022/04/07 15:12:26;;;;;;;11.25;2.15;;;;;;;;;;5086355;28;20388;-82
2022/04/07 15:14:52;;;;;;;14.48;1.77;;;;;;;;;;5061686;28;20052;-81
2022/04/07 15:17:18;;;;;;;12.40;1.90;;;;;;;;;;5081814;28;20055;-83